createdAt,value
2022-12-12T00:01:16.710Z,6.00
2022-12-12T00:03:44.255Z,5.50
2022-12-12T00:06:11.724Z,5.50
2022-12-12T00:08:39.140Z,5.00
2022-12-12T00:12:31.646Z,5.00
2022-12-12T00:14:59.064Z,6.75
2022-12-12T00:17:26.459Z,5.75
2022-12-12T00:19:53.853Z,5.25
2022-12-12T00:22:21.247Z,5.50
2022-12-12T00:24:48.636Z,6.00
2022-12-12T00:27:16.032Z,6.00
2022-12-12T00:29:44.725Z,6.00
2022-12-12T00:32:12.115Z,6.00
2022-12-12T00:34:39.649Z,5.75
2022-12-12T00:37:07.134Z,5.50
2022-12-12T00:39:34.765Z,5.25
2022-12-12T00:42:02.152Z,4.00
2022-12-12T00:44:29.562Z,4.50
2022-12-12T00:46:58.219Z,6.00
2022-12-12T00:49:25.619Z,5.00
2022-12-12T00:51:53.013Z,4.00
2022-12-12T00:54:20.458Z,6.00
2022-12-12T00:56:47.841Z,5.50
2022-12-12T00:59:15.584Z,5.00
2022-12-12T01:01:43.035Z,5.50
2022-12-12T01:04:11.931Z,6.00
2022-12-12T01:06:39.344Z,5.25
2022-12-12T01:09:06.717Z,5.00
2022-12-12T01:11:34.191Z,5.50
2022-12-12T01:14:01.744Z,5.00
2022-12-12T01:16:29.861Z,5.00
2022-12-12T01:18:57.247Z,5.00
2022-12-12T01:21:25.943Z,6.00
2022-12-12T01:23:53.384Z,5.75
2022-12-12T01:26:21.915Z,5.00
2022-12-12T01:28:49.303Z,5.25
2022-12-12T01:31:16.883Z,5.25
2022-12-12T01:33:45.843Z,6.00
2022-12-12T01:36:16.405Z,3.00
2022-12-12T01:38:45.814Z,3.00
2022-12-12T01:41:13.316Z,4.50
2022-12-12T01:43:40.705Z,4.00
2022-12-12T01:46:40.566Z,4.75
2022-12-12T01:49:17.888Z,4.00
2022-12-12T01:51:46.825Z,5.00
2022-12-12T01:54:16.864Z,4.25
2022-12-12T01:56:44.331Z,5.00
2022-12-12T01:59:12.330Z,4.00
2022-12-12T02:01:39.781Z,5.00
2022-12-12T02:04:07.761Z,5.00
2022-12-12T02:06:35.562Z,4.50
2022-12-12T02:09:05.947Z,5.00
2022-12-12T02:11:38.567Z,2.00
2022-12-12T02:14:06.034Z,5.00
2022-12-12T02:16:40.108Z,5.00
2022-12-12T02:19:18.274Z,5.00
2022-12-12T02:21:47.264Z,5.00
2022-12-12T02:24:37.548Z,4.25
2022-12-12T02:27:18.369Z,5.50
2022-12-12T02:30:05.866Z,5.00
2022-12-12T02:32:56.403Z,5.00
2022-12-12T02:35:29.323Z,5.00
2022-12-12T02:38:00.312Z,4.00
2022-12-12T02:40:29.750Z,5.00
2022-12-12T02:42:59.979Z,5.25
2022-12-12T02:45:32.092Z,4.00
2022-12-12T02:48:02.209Z,4.75
2022-12-12T02:50:29.619Z,5.00
2022-12-12T02:52:57.091Z,5.00
2022-12-12T02:55:24.478Z,5.00
2022-12-12T02:57:51.885Z,4.50
2022-12-12T03:00:19.585Z,4.00
2022-12-12T03:03:26.173Z,4.50
2022-12-12T03:06:17.302Z,4.00
2022-12-12T03:08:49.791Z,5.00
2022-12-12T03:11:21.237Z,5.00
2022-12-12T03:13:52.518Z,4.00
2022-12-12T03:16:25.197Z,5.00
2022-12-12T03:18:57.770Z,5.00
2022-12-12T03:21:27.144Z,5.00
2022-12-12T03:23:55.636Z,5.00
2022-12-12T03:26:25.831Z,3.00
2022-12-12T03:28:54.735Z,3.75
2022-12-12T03:31:24.196Z,3.75
2022-12-12T03:33:53.313Z,5.00
2022-12-12T03:36:23.562Z,0.00
2022-12-12T03:38:56.958Z,4.00
2022-12-12T03:41:26.006Z,4.75
2022-12-12T03:43:56.000Z,3.00
2022-12-12T03:46:25.655Z,4.50
2022-12-12T03:48:54.939Z,4.75
2022-12-12T03:51:25.443Z,4.00
2022-12-12T03:53:54.099Z,3.25
2022-12-12T03:56:23.729Z,4.00
2022-12-12T03:58:52.317Z,4.50
2022-12-12T04:01:20.218Z,4.00
2022-12-12T04:03:50.671Z,4.00
2022-12-12T04:06:29.075Z,3.00
2022-12-12T04:09:16.712Z,3.33
2022-12-12T04:12:09.239Z,3.00
2022-12-12T04:14:46.213Z,4.00
2022-12-12T04:17:14.774Z,4.00
2022-12-12T04:20:02.755Z,3.00
2022-12-12T04:22:51.507Z,3.75
2022-12-12T04:25:28.640Z,2.50
2022-12-12T04:27:55.122Z,4.00
2022-12-12T04:30:22.500Z,4.00
2022-12-12T04:32:50.414Z,4.00
2022-12-12T04:35:18.547Z,3.00
2022-12-12T04:37:47.054Z,3.75
2022-12-12T04:40:15.467Z,3.00
2022-12-12T04:42:45.309Z,3.00
2022-12-12T04:45:15.462Z,3.00
2022-12-12T04:47:44.154Z,2.50
2022-12-12T04:50:11.554Z,3.00
2022-12-12T04:52:38.936Z,4.25
2022-12-12T04:55:07.058Z,3.25
2022-12-12T04:57:39.724Z,3.50
2022-12-12T05:00:09.987Z,3.50
2022-12-12T05:02:40.597Z,3.00
2022-12-12T05:05:09.197Z,3.50
2022-12-12T05:07:40.051Z,2.50
2022-12-12T05:10:08.558Z,3.75
2022-12-12T05:12:40.656Z,3.00
2022-12-12T05:15:10.426Z,3.00
2022-12-12T05:17:42.059Z,3.00
2022-12-12T05:20:10.494Z,2.25
2022-12-12T05:22:37.897Z,2.00
2022-12-12T05:25:06.454Z,2.50
2022-12-12T05:27:33.878Z,3.00
2022-12-12T05:30:01.263Z,2.50
2022-12-12T05:32:29.953Z,2.00
2022-12-12T05:34:57.350Z,3.00
2022-12-12T05:37:24.798Z,2.00
2022-12-12T05:39:52.830Z,3.00
2022-12-12T05:42:20.228Z,2.00
2022-12-12T05:44:47.631Z,2.00
2022-12-12T05:47:15.022Z,3.25
2022-12-12T05:49:43.695Z,3.00
2022-12-12T05:52:11.108Z,2.00
2022-12-12T05:54:40.252Z,3.00
2022-12-12T05:57:07.659Z,3.00
2022-12-12T05:59:35.068Z,3.00
2022-12-12T06:02:02.512Z,2.00
2022-12-12T06:04:31.194Z,3.00
2022-12-12T06:06:59.965Z,2.00
2022-12-12T06:09:27.812Z,2.25
2022-12-12T06:11:55.189Z,2.00
2022-12-12T06:14:22.600Z,2.00
2022-12-12T06:16:50.004Z,2.00
2022-12-12T06:19:18.734Z,3.00
2022-12-12T06:21:46.132Z,2.00
2022-12-12T06:24:14.818Z,3.00
2022-12-12T06:26:42.211Z,2.00
2022-12-12T06:29:09.620Z,2.75
2022-12-12T06:31:37.234Z,2.00
2022-12-12T06:34:04.719Z,2.67
2022-12-12T06:36:32.119Z,2.00
2022-12-12T06:39:00.326Z,1.00
2022-12-12T06:41:30.362Z,2.25
2022-12-12T06:43:57.838Z,1.75
2022-12-12T06:46:26.514Z,1.25
2022-12-12T06:48:54.423Z,0.00
2022-12-12T06:51:23.434Z,2.25
2022-12-12T06:53:51.019Z,2.00
2022-12-12T06:56:20.036Z,2.00
2022-12-12T06:58:49.160Z,2.00
2022-12-12T07:01:18.738Z,2.00
2022-12-12T07:03:46.420Z,2.00
2022-12-12T07:06:13.965Z,1.00
2022-12-12T07:08:41.552Z,2.00
2022-12-12T07:11:11.078Z,2.75
2022-12-12T07:13:38.524Z,1.75
2022-12-12T07:16:07.918Z,2.00
2022-12-12T07:18:35.420Z,1.00
2022-12-12T07:21:04.422Z,1.75
2022-12-12T07:23:31.828Z,2.25
2022-12-12T07:25:59.210Z,1.50
2022-12-12T07:28:26.882Z,1.00
2022-12-12T07:30:54.311Z,2.00
2022-12-12T07:33:23.029Z,0.75
2022-12-12T07:35:50.435Z,1.00
2022-12-12T07:38:17.844Z,1.00
2022-12-12T07:40:45.232Z,2.00
2022-12-12T07:43:12.639Z,2.00
2022-12-12T07:45:40.114Z,1.00
2022-12-12T07:48:07.524Z,1.50
2022-12-12T07:50:36.210Z,2.00
2022-12-12T07:53:03.604Z,1.25
2022-12-12T07:55:31.189Z,1.00
2022-12-12T07:57:58.885Z,2.00
2022-12-12T08:00:26.437Z,2.00
2022-12-12T08:02:53.830Z,2.00
2022-12-12T08:05:21.554Z,0.00
2022-12-12T08:07:50.285Z,1.00
2022-12-12T08:10:18.044Z,2.00
2022-12-12T08:12:45.435Z,1.00
2022-12-12T08:15:13.367Z,2.00
2022-12-12T08:17:40.935Z,1.00
2022-12-12T08:20:09.462Z,1.25
2022-12-12T08:22:36.900Z,1.00
2022-12-12T08:25:06.417Z,1.00
2022-12-12T08:27:33.838Z,1.00
2022-12-12T08:30:01.231Z,1.75
2022-12-12T08:32:28.618Z,1.00
2022-12-12T08:34:56.921Z,1.00
2022-12-12T08:37:24.318Z,1.50
2022-12-12T08:39:55.548Z,2.00
2022-12-12T08:42:24.588Z,1.50
2022-12-12T08:44:52.222Z,2.00
2022-12-12T08:47:19.636Z,1.00
2022-12-12T08:49:47.018Z,1.00
2022-12-12T08:52:14.403Z,1.00
2022-12-12T08:54:41.811Z,1.00
2022-12-12T08:57:09.217Z,1.00
2022-12-12T08:59:37.898Z,1.00
2022-12-12T09:02:05.415Z,1.00
2022-12-12T09:04:34.687Z,1.00
2022-12-12T09:07:08.064Z,1.00
2022-12-12T09:09:35.967Z,1.00
2022-12-12T09:12:03.354Z,1.00
2022-12-12T09:14:30.755Z,1.00
2022-12-12T09:16:59.479Z,1.00
2022-12-12T09:19:26.894Z,1.00
2022-12-12T09:21:54.290Z,1.25
2022-12-12T09:24:23.887Z,1.00
2022-12-12T09:26:51.274Z,1.00
2022-12-12T09:29:18.666Z,1.00
2022-12-12T09:31:46.142Z,1.00
2022-12-12T09:34:14.861Z,1.00
2022-12-12T09:36:42.253Z,0.00
2022-12-12T09:39:09.637Z,1.00
2022-12-12T09:41:37.029Z,1.00
2022-12-12T09:44:06.858Z,1.00
2022-12-12T09:46:38.324Z,1.00
2022-12-12T09:49:15.435Z,1.00
2022-12-12T09:51:43.929Z,0.00
2022-12-12T09:54:14.348Z,1.25
2022-12-12T09:56:45.393Z,1.00
2022-12-12T09:59:16.096Z,1.25
2022-12-12T10:01:50.754Z,1.00
2022-12-12T10:04:22.963Z,1.00
2022-12-12T10:06:54.570Z,0.50
2022-12-12T10:09:36.383Z,0.00
2022-12-12T10:12:08.088Z,1.00
2022-12-12T10:14:38.669Z,1.00
2022-12-12T10:17:08.668Z,1.00
2022-12-12T10:19:42.532Z,1.00
2022-12-12T10:22:16.577Z,1.00
2022-12-12T10:24:46.296Z,0.00
2022-12-12T10:27:14.959Z,0.50
2022-12-12T10:29:44.683Z,0.25
2022-12-12T10:32:15.132Z,1.00
2022-12-12T10:34:51.476Z,0.00
2022-12-12T10:37:26.691Z,1.00
2022-12-12T10:39:59.449Z,0.00
2022-12-12T10:42:28.768Z,1.00
2022-12-12T10:45:04.512Z,0.50
2022-12-12T10:47:31.913Z,1.00
2022-12-12T10:50:06.344Z,1.00
2022-12-12T10:52:36.117Z,1.00
2022-12-12T10:55:03.575Z,1.00
2022-12-12T10:57:35.146Z,0.00
2022-12-12T11:00:02.942Z,0.00
2022-12-12T11:02:35.952Z,1.00
2022-12-12T11:05:09.178Z,1.00
2022-12-12T11:07:39.775Z,0.25
2022-12-12T11:10:21.253Z,0.50
2022-12-12T11:12:52.235Z,1.00
2022-12-12T11:15:19.650Z,0.00
2022-12-12T11:17:47.044Z,0.25
2022-12-12T11:20:18.688Z,1.00
2022-12-12T11:22:46.087Z,0.25
2022-12-12T11:25:27.183Z,0.00
2022-12-12T11:27:54.660Z,3.00
2022-12-12T11:30:27.427Z,3.00
2022-12-12T11:32:55.324Z,3.00
2022-12-12T11:35:25.355Z,5.25
2022-12-12T11:37:54.740Z,5.25
2022-12-12T11:40:24.588Z,6.00
2022-12-12T11:42:51.989Z,4.25
2022-12-12T11:45:24.198Z,5.00
2022-12-12T11:47:51.633Z,4.00
2022-12-12T11:50:21.233Z,5.25
2022-12-12T11:52:50.342Z,4.00
2022-12-12T11:55:18.609Z,4.00
2022-12-12T11:58:01.844Z,4.00
2022-12-12T12:00:32.409Z,4.00
2022-12-12T12:03:13.296Z,4.00
2022-12-12T12:05:47.506Z,4.00
2022-12-12T12:08:25.599Z,4.75
2022-12-12T12:11:00.496Z,5.50
2022-12-12T12:13:40.740Z,4.50
2022-12-12T12:16:11.030Z,5.00
2022-12-12T12:18:45.770Z,3.50
2022-12-12T12:21:22.734Z,4.25
2022-12-12T12:23:54.279Z,3.50
2022-12-12T12:26:25.754Z,2.00
2022-12-12T12:29:03.582Z,3.00
2022-12-12T12:31:33.659Z,3.00
2022-12-12T12:34:05.798Z,3.00
2022-12-12T12:36:37.345Z,2.00
2022-12-12T12:39:12.841Z,2.25
2022-12-12T12:41:50.677Z,2.50
2022-12-12T12:44:29.477Z,2.00
2022-12-12T12:47:00.893Z,2.00
2022-12-12T12:49:29.604Z,2.00
2022-12-12T12:51:58.529Z,1.00
2022-12-12T12:54:29.299Z,1.00
2022-12-12T12:56:58.336Z,2.00
2022-12-12T12:59:28.930Z,2.00
2022-12-12T13:01:56.388Z,2.00
2022-12-12T13:04:25.330Z,1.25
2022-12-12T13:06:54.768Z,2.00
2022-12-12T13:09:28.023Z,2.00
2022-12-12T13:11:57.845Z,2.00
2022-12-12T13:14:30.446Z,2.00
2022-12-12T13:16:58.145Z,2.00
2022-12-12T13:19:28.930Z,1.00
2022-12-12T13:21:59.282Z,1.00
2022-12-12T13:24:30.758Z,1.50
2022-12-12T13:27:00.515Z,1.25
2022-12-12T13:29:34.558Z,1.00
2022-12-12T13:32:28.712Z,2.00
2022-12-12T13:34:56.939Z,2.00
2022-12-12T13:37:24.348Z,1.75
2022-12-12T13:40:00.223Z,1.75
2022-12-12T13:42:27.787Z,1.00
2022-12-12T13:44:55.195Z,1.25
2022-12-12T13:48:00.281Z,1.00
2022-12-12T13:50:27.681Z,2.00
2022-12-12T13:53:19.373Z,1.75
2022-12-12T13:55:48.068Z,2.00
2022-12-12T13:58:33.533Z,1.50
2022-12-12T14:01:31.465Z,1.00
2022-12-12T14:03:59.249Z,1.00
2022-12-12T14:06:28.625Z,1.00
2022-12-12T14:08:56.080Z,2.00
2022-12-12T14:11:30.585Z,1.00
2022-12-12T14:14:05.797Z,1.00
2022-12-12T14:16:33.182Z,1.25
2022-12-12T14:19:03.448Z,1.00
2022-12-12T14:21:42.425Z,1.00
2022-12-12T14:24:48.507Z,1.00
2022-12-12T14:27:17.324Z,2.00
2022-12-12T14:29:44.890Z,1.00
2022-12-12T14:32:31.758Z,1.00
2022-12-12T14:35:02.975Z,1.50
2022-12-12T14:37:40.642Z,1.00
2022-12-12T14:40:13.865Z,1.75
2022-12-12T14:43:19.173Z,1.50
2022-12-12T14:45:37.703Z,1.00
2022-12-12T14:48:16.847Z,1.00
2022-12-12T14:50:49.011Z,1.00
2022-12-12T14:53:17.418Z,1.00
2022-12-12T14:55:49.253Z,1.00
2022-12-12T14:58:20.957Z,2.00
2022-12-12T15:00:49.283Z,1.00
2022-12-12T15:03:16.741Z,1.00
2022-12-12T15:05:44.195Z,1.00
2022-12-12T15:08:18.259Z,1.00
2022-12-12T15:10:45.683Z,1.00
2022-12-12T15:13:16.986Z,1.00
2022-12-12T15:15:45.772Z,1.00
2022-12-12T15:18:13.194Z,0.00
2022-12-12T15:20:53.810Z,1.00
2022-12-12T15:23:21.266Z,1.00
2022-12-12T15:25:49.613Z,1.00
2022-12-12T15:28:17.422Z,0.75
2022-12-12T15:30:47.832Z,1.00
2022-12-12T15:33:17.270Z,1.00
2022-12-12T15:35:49.368Z,1.00
2022-12-12T15:38:16.883Z,1.00
2022-12-12T15:40:44.680Z,1.00
2022-12-12T15:43:14.327Z,1.00
2022-12-12T15:45:43.269Z,1.00
2022-12-12T15:48:15.441Z,1.00
2022-12-12T15:50:51.974Z,0.25
2022-12-12T15:53:20.633Z,0.00
2022-12-12T15:55:51.762Z,1.00
2022-12-12T15:58:28.716Z,1.00
2022-12-12T16:01:02.882Z,1.00
2022-12-12T16:03:31.632Z,1.00
2022-12-12T16:06:03.188Z,0.00
2022-12-12T16:08:38.498Z,1.00
2022-12-12T16:11:06.825Z,1.00
2022-12-12T16:13:38.100Z,0.00
2022-12-12T16:16:37.589Z,1.00
2022-12-12T16:19:06.478Z,0.50
2022-12-12T16:21:36.515Z,0.50
2022-12-12T16:24:11.477Z,0.00
2022-12-12T16:26:38.914Z,1.00
2022-12-12T16:29:06.321Z,0.00
2022-12-12T16:31:33.759Z,1.00
2022-12-12T16:34:02.883Z,0.75
2022-12-12T16:36:34.514Z,0.00
2022-12-12T16:39:05.966Z,1.00
2022-12-12T16:41:33.367Z,0.00
2022-12-12T16:44:01.648Z,0.00
2022-12-12T16:46:29.049Z,1.00
2022-12-12T16:49:03.182Z,1.00
2022-12-12T16:51:33.627Z,0.25
2022-12-12T16:54:01.085Z,0.50
2022-12-12T16:56:28.483Z,0.25
2022-12-12T16:58:56.147Z,1.00
2022-12-12T17:01:23.597Z,0.75
2022-12-12T17:03:51.112Z,1.00
2022-12-12T17:06:18.533Z,0.00
2022-12-12T17:08:47.280Z,0.00
2022-12-12T17:11:14.666Z,1.00
2022-12-12T17:13:48.203Z,0.25
2022-12-12T17:16:15.809Z,0.00
2022-12-12T17:18:43.261Z,0.00
2022-12-12T17:21:10.827Z,0.75
2022-12-12T17:23:38.239Z,1.00
2022-12-12T17:26:06.997Z,0.75
2022-12-12T17:28:34.477Z,0.00
2022-12-12T17:31:01.994Z,0.00
2022-12-12T17:33:29.401Z,1.00
2022-12-12T17:36:00.871Z,0.25
2022-12-12T17:38:30.162Z,0.25
2022-12-12T17:40:57.657Z,0.00
2022-12-12T17:43:26.375Z,1.00
2022-12-12T17:46:00.479Z,0.00
2022-12-12T17:48:31.065Z,1.00
2022-12-12T17:51:00.052Z,1.00
2022-12-12T17:53:27.446Z,1.00
2022-12-12T17:56:01.659Z,0.50
2022-12-12T17:58:37.105Z,0.75
2022-12-12T18:01:10.290Z,1.00
2022-12-12T18:03:38.060Z,0.00
2022-12-12T18:06:05.804Z,0.25
2022-12-12T18:08:33.351Z,1.00
2022-12-12T18:11:00.800Z,1.00
2022-12-12T18:13:28.281Z,0.00
2022-12-12T18:15:57.253Z,0.00
2022-12-12T18:18:24.784Z,0.50
2022-12-12T18:20:52.225Z,1.00
2022-12-12T18:23:19.634Z,1.00
2022-12-12T18:25:47.339Z,0.75
2022-12-12T18:28:14.822Z,0.00
2022-12-12T18:30:42.398Z,0.50
2022-12-12T18:33:11.197Z,1.00
2022-12-12T18:35:38.603Z,1.00
2022-12-12T18:38:06.402Z,0.00
2022-12-12T18:40:34.197Z,1.00
2022-12-12T18:43:01.610Z,1.00
2022-12-12T18:45:29.017Z,0.75
2022-12-12T18:47:56.456Z,0.25
2022-12-12T18:50:25.161Z,1.00
2022-12-12T18:52:52.563Z,1.00
2022-12-12T18:55:19.954Z,1.00
2022-12-12T18:57:47.362Z,2.00
2022-12-12T19:00:16.624Z,2.00
2022-12-12T19:02:44.608Z,2.00
2022-12-12T19:05:13.309Z,2.00
2022-12-12T19:07:42.015Z,2.00
2022-12-12T19:10:09.884Z,1.25
2022-12-12T19:12:37.288Z,1.75
2022-12-12T19:15:16.898Z,2.00
2022-12-12T19:17:44.679Z,2.00
2022-12-12T19:20:13.797Z,2.00
2022-12-12T19:22:46.861Z,2.00
2022-12-12T19:25:14.921Z,2.00
2022-12-12T19:27:42.419Z,2.25
2022-12-12T19:30:11.089Z,2.00
2022-12-12T19:32:38.560Z,2.50
2022-12-12T19:35:07.279Z,2.00
2022-12-12T19:37:36.120Z,3.00
2022-12-12T19:40:05.256Z,2.25
2022-12-12T19:42:32.643Z,2.00
2022-12-12T19:45:00.030Z,1.50
2022-12-12T19:47:27.421Z,3.00
2022-12-12T19:49:54.898Z,1.00
2022-12-12T19:52:22.308Z,2.75
2022-12-12T19:54:49.700Z,2.75
2022-12-12T19:57:18.384Z,2.00
2022-12-12T19:59:45.803Z,2.00
2022-12-12T20:02:13.304Z,3.00
2022-12-12T20:04:41.491Z,2.00
2022-12-12T20:07:08.901Z,2.00
2022-12-12T20:09:36.528Z,2.00
2022-12-12T20:12:04.229Z,3.00
2022-12-12T20:14:33.670Z,2.00
2022-12-12T20:17:02.701Z,2.00
2022-12-12T20:19:30.577Z,2.25
2022-12-12T20:22:01.255Z,2.00
2022-12-12T20:24:29.112Z,2.00
2022-12-12T20:26:56.934Z,3.00
2022-12-12T20:29:24.371Z,2.00
2022-12-12T20:31:53.064Z,2.00
2022-12-12T20:34:21.636Z,3.00
2022-12-12T20:36:50.183Z,2.00
2022-12-12T20:39:19.267Z,2.00
2022-12-12T20:41:46.682Z,2.25
2022-12-12T20:44:14.416Z,2.00
2022-12-12T20:46:42.719Z,2.75
2022-12-12T20:49:14.120Z,3.00
2022-12-12T20:51:58.259Z,2.00
2022-12-12T20:54:26.169Z,1.25
2022-12-12T20:56:53.807Z,2.00
2022-12-12T20:59:21.211Z,2.00
2022-12-12T21:01:48.712Z,3.00
2022-12-12T21:04:17.479Z,3.00
2022-12-12T21:06:48.158Z,2.25
2022-12-12T21:09:22.558Z,2.00
2022-12-12T21:11:50.986Z,3.00
2022-12-12T21:14:18.391Z,2.00
2022-12-12T21:16:46.270Z,2.00
2022-12-12T21:19:14.157Z,2.50
2022-12-12T21:21:43.521Z,2.00
2022-12-12T21:24:11.409Z,2.00
2022-12-12T21:26:38.983Z,3.00
2022-12-12T21:29:06.451Z,2.00
2022-12-12T21:31:34.904Z,2.00
2022-12-12T21:34:02.380Z,3.00
2022-12-12T21:36:30.302Z,3.25
2022-12-12T21:38:59.602Z,2.50
2022-12-12T21:41:27.079Z,2.00
2022-12-12T21:43:55.670Z,2.00
2022-12-12T21:46:23.876Z,1.25
2022-12-12T21:49:12.090Z,2.25
2022-12-12T21:51:39.558Z,2.00
2022-12-12T21:54:09.075Z,3.00
2022-12-12T21:56:36.630Z,2.00
2022-12-12T21:59:04.183Z,2.50
2022-12-12T22:01:31.967Z,2.00
2022-12-12T22:03:59.529Z,2.00
2022-12-12T22:06:27.629Z,2.00
2022-12-12T22:08:55.087Z,3.00
2022-12-12T22:11:40.090Z,1.75
2022-12-12T22:14:09.852Z,0.00
2022-12-12T22:16:37.581Z,2.00
2022-12-12T22:19:06.273Z,2.00
2022-12-12T22:21:33.890Z,2.00
2022-12-12T22:24:01.526Z,1.50
2022-12-12T22:26:30.783Z,2.25
2022-12-12T22:28:58.858Z,1.00
2022-12-12T22:31:27.211Z,2.00
2022-12-12T22:33:55.418Z,2.00
2022-12-12T22:36:25.173Z,1.50
2022-12-12T22:38:53.119Z,2.00
2022-12-12T22:41:20.581Z,0.00
2022-12-12T22:43:49.308Z,2.00
2022-12-12T22:46:16.742Z,2.00
2022-12-12T22:48:44.199Z,2.25
2022-12-12T22:51:13.753Z,1.00
2022-12-12T22:53:44.434Z,1.50
2022-12-12T22:56:12.164Z,2.00
2022-12-12T22:58:39.615Z,3.00
2022-12-12T23:01:09.825Z,2.00
2022-12-12T23:03:37.357Z,1.00
2022-12-12T23:06:05.451Z,3.00
2022-12-12T23:08:32.894Z,2.00
2022-12-12T23:11:06.513Z,2.00
2022-12-12T23:13:34.421Z,2.00
2022-12-12T23:16:05.733Z,1.00
2022-12-12T23:18:34.544Z,2.00
2022-12-12T23:21:01.967Z,2.50
2022-12-12T23:23:29.450Z,3.00
2022-12-12T23:25:56.863Z,2.25
2022-12-12T23:28:24.769Z,2.00
2022-12-12T23:30:52.164Z,3.00
2022-12-12T23:33:19.561Z,2.00
2022-12-12T23:35:48.730Z,2.25
2022-12-12T23:38:16.428Z,2.00
2022-12-12T23:40:43.823Z,2.00
2022-12-12T23:43:11.217Z,2.00
2022-12-12T23:45:38.675Z,1.50
2022-12-12T23:48:06.721Z,1.75
2022-12-12T23:50:34.410Z,2.00
2022-12-12T23:53:08.992Z,2.00
2022-12-12T23:55:37.911Z,2.50
2022-12-12T23:58:05.317Z,1.25
